Cleveland, OH

1:29 AM EDT on June 30, 2015 (GMT -0400)
APRSWXNET | | Change Station
CLOSE
Current Station
Personal Weather Station
Location: Cleveland, OH
Elevation: 690 ft
Nearby Weather Stations

Elev 690 ft 41.47 °N, 81.65 °W | Updated 28 minutes ago

Overcast
Overcast
62 °F
Feels Like 62 °F
N
0
Wind Variable Wind from ENE
Gusts 0.0 mph

Today
High -- | Low -- °F
--% Chance of Precip.
Yesterday
High -- | Low -- °F
Precip. -- in
5:56 AM 9:04 PM
Waxing Gibbous, 96% visible
Pressure 29.81 in
Visibility 10.0 miles
Clouds Overcast 3700 ft
Dew Point 56 °F
Humidity 81%
Rainfall in
Snow Depth Not available.
UV 0 out of 12
Pollen 3.10 out of 12
Air Quality Not available.
Flu Activity Sporadic
METAR KBKL 300453Z 14005KT 10SM OVC037 18/15 A2981 RMK AO2 RAB0356E05B24E39 SLP094 P0000 T01830150 402330156

More Conditions Fewer Conditions

Pressure 29.81 in
Visibility 10.0 miles
Clouds Overcast 3700 ft
Dew Point 56 °F
Humidity 81%
Rainfall in
Snow Depth Not available.
UV 0 out of 12
Pollen 3.10 out of 12
Air Quality Not available.
Flu Activity Sporadic
METAR KBKL 300453Z 14005KT 10SM OVC037 18/15 A2981 RMK AO2 RAB0356E05B24E39 SLP094 P0000 T01830150 402330156

More Conditions Fewer Conditions

10-Day Weather Forecast

×

Almanac

Astronomy

Jun. 30, 2015 Rise Set
Actual Time
Civil Twilight
Nautical Twilight
Astronomical Twilight
Moon
Length of Visible Light
Length of Day
Tomorrow will be .
, % of the Moon is Illuminated

Today's Extremes

State Highs State Lows

Community

WunderPhotos

Upload Photos

1,833,970 photos uploaded!

WunderBlogs® & News

Nearby

Air Quality

  Air Quality AQ Index Pollutant
Not available.

Snow Depth

Station Depth Elevation

Earthquake Activity

City Distance Mag. Time & Date
Minimum magnitude displayed is 2.5.

Coastal Water Temperatures

Place Temperature

Stations

Nearby Weather Stations

Station Location Temp. Windchill Dew Point Humidity Wind Precip. Elev Updated Type